Arthur Brusco — WDC3449 — position and weather

sailwx.info

Track history (hours):
 
Tides and Currents Weather Stations Pressure Air Temp Water Temp Dewpoint Dewpoint Depression Visibility Wind Speed Wind Dir Waves Ship Positions

Arthur Brusco

Owner: Brusco Tug & Barge, Inc, Longview, WA. More information available from US FCC via Universal Licensing System and Coast Guard Vessel Documentation Center.

Last reported at 2014-Dec-22 13:33 UTC. Time now 2014-Dec-22 14:14 UTC.
Position N 37°57' W 122°26'.

Length 35 m; draft 4.2 m.

Type: Towing. MMSI: 367008020.

Date/timePositionNaut miles runAvg speedWind from/ knotsBaromVisibWave heightAir tempDewpointWater temp
2014-Dec-22 13:33N 37°57' W 122°26'7 6.9
2014-Dec-22 12:33N 38°02' W 122°21'14 9.6
2014-Dec-22 11:07N 38°04' W 122°03'11 1.7
2014-Dec-22 04:25N 38°03' W 122°18'7 8.0
2014-Dec-22 03:33N 37°59' W 122°25'5 5.4
2014-Dec-22 02:33N 37°54' W 122°23'6 6.0
2014-Dec-22 01:33N 38°00' W 122°24'6 0.8
2014-Dec-21 18:22N 38°03' W 122°18'7 8.8
2014-Dec-21 17:33N 37°59' W 122°25'5 5.1
2014-Dec-21 16:33N 37°54' W 122°23'0 0.0
2014-Dec-21 15:33N 37°54' W 122°23'1 0.8
2014-Dec-21 14:33N 37°54' W 122°22'0 0.0
2014-Dec-21 13:33N 37°54' W 122°22'0 0.0
2014-Dec-21 12:33N 37°54' W 122°22'0 0.0
2014-Dec-21 11:33N 37°54' W 122°22'0 0.0
2014-Dec-21 10:33N 37°54' W 122°22'0 0.0
2014-Dec-21 09:33N 37°54' W 122°22'0 0.0
2014-Dec-21 08:33N 37°54' W 122°22'0 0.0
2014-Dec-21 07:33N 37°54' W 122°22'0 0.0
2014-Dec-21 06:33N 37°54' W 122°22'0 0.0
2014-Dec-21 05:33N 37°54' W 122°22'0 0.0
2014-Dec-21 04:33N 37°54' W 122°22'0 0.0
2014-Dec-21 03:33N 37°54' W 122°22'1 1.4
2014-Dec-21 02:33N 37°54' W 122°24'0 0.5
2014-Dec-21 01:33N 37°54' W 122°24'3 3.3
2014-Dec-21 00:33N 37°57' W 122°26'1211.6
2014-Dec-20 23:33N 38°04' W 122°13'4 0.7
2014-Dec-20 17:28N 38°02' W 122°08'9 9.3
2014-Dec-20 16:33N 38°03' W 122°19'9 8.7
2014-Dec-20 15:33N 37°55' W 122°25'1 0.6
2014-Dec-20 14:33N 37°55' W 122°25'6 6.3
2014-Dec-20 13:33N 38°01' W 122°23'10 9.5
2014-Dec-20 12:30N 38°03' W 122°11'2 0.2
2014-Dec-20 04:03N 38°04' W 122°13'4 6.5
2014-Dec-20 03:22N 38°03' W 122°19'5 6.3
2014-Dec-20 02:33N 38°00' W 122°24'6 5.7
2014-Dec-20 01:33N 37°54' W 122°24'0 0.2
2014-Dec-20 00:33N 37°54' W 122°23'0 0.0
2014-Dec-19 23:33N 37°54' W 122°23'0 0.0
2014-Dec-19 22:33N 37°54' W 122°23'0 0.0
2014-Dec-19 21:33N 37°54' W 122°23'0 0.0
2014-Dec-19 20:33N 37°54' W 122°23'0 0.0
2014-Dec-19 19:33N 37°54' W 122°23'0 0.0
2014-Dec-19 18:33N 37°54' W 122°23'0 0.0
2014-Dec-19 17:33N 37°54' W 122°23'0 0.0
2014-Dec-19 16:33N 37°54' W 122°23'0 0.0
2014-Dec-19 15:33N 37°54' W 122°23'0 0.0
2014-Dec-19 14:33N 37°54' W 122°23'0 0.0
2014-Dec-19 13:33N 37°54' W 122°23'0 0.0
2014-Dec-19 12:33N 37°54' W 122°23'0 0.0
2014-Dec-19 11:33N 37°54' W 122°23'0 0.0
2014-Dec-19 10:33N 37°54' W 122°23'0 0.0
2014-Dec-19 09:33N 37°54' W 122°23'0 0.0
2014-Dec-19 08:33N 37°54' W 122°23'0 0.0
2014-Dec-19 07:33N 37°54' W 122°23'0 0.0
2014-Dec-19 06:33N 37°54' W 122°23'0 0.0
2014-Dec-19 05:33N 37°54' W 122°23'0 0.0
2014-Dec-19 04:33N 37°54' W 122°23'0 0.0
2014-Dec-19 03:33N 37°54' W 122°23'0 0.0
2014-Dec-19 02:33N 37°54' W 122°23'0 0.0
2014-Dec-19 01:33N 37°54' W 122°23'0 0.0
2014-Dec-19 00:33N 37°54' W 122°23'0 0.0
2014-Dec-18 23:33N 37°54' W 122°23'0 0.0
2014-Dec-18 22:33N 37°54' W 122°23'0 0.0
2014-Dec-18 21:33N 37°54' W 122°23'0 0.0
2014-Dec-18 20:33N 37°54' W 122°23'0 0.0
2014-Dec-18 19:33N 37°54' W 122°23'0 0.0
2014-Dec-18 18:33N 37°54' W 122°23'0 0.0
2014-Dec-18 17:33N 37°54' W 122°23'0 0.0
2014-Dec-18 16:33N 37°54' W 122°23'1 1.2
2014-Dec-18 15:33N 37°54' W 122°22'0 0.0
2014-Dec-18 14:33N 37°54' W 122°22'0 0.0
2014-Dec-18 13:33N 37°54' W 122°22'0 0.0
2014-Dec-18 12:33N 37°54' W 122°22'0 0.0
2014-Dec-18 11:33N 37°54' W 122°22'0 0.0
2014-Dec-18 10:33N 37°54' W 122°22'0 0.0
2014-Dec-18 09:33N 37°54' W 122°22'0 0.0
2014-Dec-18 08:33N 37°54' W 122°22'0 0.0
2014-Dec-18 07:33N 37°54' W 122°22'0 0.0
2014-Dec-18 06:33N 37°54' W 122°22'0 0.0
2014-Dec-18 05:33N 37°54' W 122°22'0 0.0
2014-Dec-18 04:33N 37°54' W 122°22'0 0.0
2014-Dec-18 03:33N 37°54' W 122°22'0 0.0
2014-Dec-18 02:33N 37°54' W 122°22'0 0.0
2014-Dec-18 01:33N 37°54' W 122°22'0 0.0
2014-Dec-18 00:34N 37°54' W 122°22'1 1.2
2014-Dec-17 23:33N 37°54' W 122°23'0 0.0
2014-Dec-17 22:33N 37°54' W 122°23'0 0.0
2014-Dec-17 21:33N 37°54' W 122°23'0 0.0
2014-Dec-17 20:33N 37°54' W 122°23'0 0.0
2014-Dec-17 19:33N 37°54' W 122°23'0 0.0
2014-Dec-17 18:33N 37°54' W 122°23'0 0.0
2014-Dec-17 17:33N 37°54' W 122°23'0 0.0
2014-Dec-17 16:33N 37°54' W 122°23'0 0.0
2014-Dec-17 15:33N 37°54' W 122°23'0 0.0
2014-Dec-17 14:33N 37°54' W 122°23'0 0.0
2014-Dec-17 13:33N 37°54' W 122°23'0 0.0
2014-Dec-17 12:33N 37°54' W 122°23'0 0.0
2014-Dec-17 11:33N 37°54' W 122°23'0 0.0
2014-Dec-17 10:33N 37°54' W 122°23'0 0.0
2014-Dec-17 09:33N 37°54' W 122°23'0 0.0
2014-Dec-17 08:33N 37°54' W 122°23'0 0.0
2014-Dec-17 07:33N 37°54' W 122°23'0 0.0
2014-Dec-17 06:33N 37°54' W 122°23'0 0.0
2014-Dec-17 05:33N 37°54' W 122°23'0 0.0
2014-Dec-17 04:33N 37°54' W 122°23'0 0.0
2014-Dec-17 03:33N 37°54' W 122°23'0 0.0
2014-Dec-17 02:33N 37°54' W 122°23'0 0.0
2014-Dec-17 01:33N 37°54' W 122°23'1 1.1
2014-Dec-17 00:33N 37°54' W 122°22'0 0.1
2014-Dec-16 23:33N 37°54' W 122°22'0 0.0
2014-Dec-16 22:33N 37°54' W 122°22'0 0.0
2014-Dec-16 21:33N 37°54' W 122°22'1 1.2
2014-Dec-16 20:33N 37°54' W 122°23'0 0.0
2014-Dec-16 19:33N 37°54' W 122°23'0 0.0
2014-Dec-16 18:33N 37°54' W 122°23'1 1.2
2014-Dec-16 17:33N 37°54' W 122°22'0 0.0
2014-Dec-16 16:33N 37°54' W 122°22'0 0.0
2014-Dec-16 15:33N 37°54' W 122°22'0 0.0
2014-Dec-16 14:33N 37°54' W 122°22'0 0.0
2014-Dec-16 13:33N 37°54' W 122°22'0 0.0
2014-Dec-16 12:33N 37°54' W 122°22'0 0.0
2014-Dec-16 11:33N 37°54' W 122°22'0 0.0
2014-Dec-16 10:33N 37°54' W 122°22'0 0.0
2014-Dec-16 09:33N 37°54' W 122°22'0 0.0
2014-Dec-16 08:33N 37°54' W 122°22'0 0.0
2014-Dec-16 07:33N 37°54' W 122°22'0 0.0
2014-Dec-16 06:33N 37°54' W 122°22'0 0.0
2014-Dec-16 05:33N 37°54' W 122°22'0 0.0
2014-Dec-16 04:33N 37°54' W 122°22'0 0.0
2014-Dec-16 03:32N 37°54' W 122°22'0 0.0
2014-Dec-16 02:33N 37°54' W 122°22'0 0.0
2014-Dec-16 01:33N 37°54' W 122°22'0 0.0
2014-Dec-16 00:33N 37°54' W 122°22'0 0.0
2014-Dec-15 23:33N 37°54' W 122°22'1 0.6
2014-Dec-15 22:34N 37°54' W 122°23'0 0.0
2014-Dec-15 21:33N 37°54' W 122°23'0 0.0
2014-Dec-15 20:33N 37°54' W 122°23'0 0.1
2014-Dec-15 19:33N 37°54' W 122°23'0 0.1
2014-Dec-15 18:33N 37°54' W 122°23'1 0.6
2014-Dec-15 17:33N 37°54' W 122°22'0 0.0
2014-Dec-15 16:33N 37°54' W 122°22'0 0.0
2014-Dec-15 15:33N 37°54' W 122°22'0 0.0
2014-Dec-15 14:33N 37°54' W 122°22'0 0.0
2014-Dec-15 13:33N 37°54' W 122°22'0 0.0
2014-Dec-15 12:33N 37°54' W 122°22'0 0.0
2014-Dec-15 11:33N 37°54' W 122°22'0 0.0
2014-Dec-15 10:33N 37°54' W 122°22'0 0.0
2014-Dec-15 09:33N 37°54' W 122°22'0 0.0
2014-Dec-15 08:33N 37°54' W 122°22'0 0.0
2014-Dec-15 07:33N 37°54' W 122°22'0 0.0
2014-Dec-15 06:33N 37°54' W 122°22'0 0.0
2014-Dec-15 05:33N 37°54' W 122°22'0 0.0
2014-Dec-15 04:33N 37°54' W 122°22'0 0.0
2014-Dec-15 03:33N 37°54' W 122°22'0 0.0
2014-Dec-15 02:33N 37°54' W 122°22'2 1.6
2014-Dec-15 01:33N 37°54' W 122°24'5 5.5
2014-Dec-15 00:33N 37°49' W 122°26'8 7.7
2014-Dec-14 23:33N 37°47' W 122°35'7 7.0
2014-Dec-14 22:32N 37°43' W 122°43'11 8.8
2014-Dec-14 21:14N 37°37' W 122°55'8 9.7
2014-Dec-14 20:25N 37°33' W 123°03'9 2.3
2014-Dec-14 16:24N 37°38' W 123°12'8 9.1
2014-Dec-14 15:33N 37°38' W 123°03'9 8.7
2014-Dec-14 14:31N 37°41' W 122°52'9 9.0
2014-Dec-14 13:33N 37°45' W 122°43'8 7.7
2014-Dec-14 12:33N 37°48' W 122°33'7 6.8
2014-Dec-14 11:33N 37°50' W 122°25'4 4.5
2014-Dec-14 10:33N 37°54' W 122°23'0 0.1
2014-Dec-14 09:33N 37°54' W 122°23'1 0.7
2014-Dec-14 08:33N 37°54' W 122°22'0 0.0
2014-Dec-14 07:33N 37°54' W 122°22'0 0.0
2014-Dec-14 06:33N 37°54' W 122°22'0 0.0
2014-Dec-14 05:33N 37°54' W 122°22'0 0.0
2014-Dec-14 04:33N 37°54' W 122°22'0 0.0
2014-Dec-14 03:33N 37°54' W 122°22'2 2.3
2014-Dec-14 02:33N 37°54' W 122°25'5 4.7
2014-Dec-14 01:33N 37°49' W 122°25'6 6.4
2014-Dec-14 00:33N 37°47' W 122°32'7 7.5
2014-Dec-13 23:33N 37°46' W 122°42'7 7.1
2014-Dec-13 22:31N 37°40' W 122°48'8 8.7
2014-Dec-13 21:33N 37°36' W 122°57'8 8.2
2014-Dec-13 20:33N 37°33' W 123°07'19 7.9
2014-Dec-13 18:13N 37°39' W 123°29'13 7.5
2014-Dec-13 16:27N 37°38' W 123°12'7 7.4
2014-Dec-13 15:33N 37°38' W 123°04'7 7.2
2014-Dec-13 14:33N 37°39' W 122°55'8 7.0
2014-Dec-13 13:24N 37°43' W 122°47'6 6.5
2014-Dec-13 12:33N 37°46' W 122°40'6 6.2
2014-Dec-13 11:33N 37°48' W 122°33'5 5.2
2014-Dec-13 10:33N 37°50' W 122°27'5 5.2
2014-Dec-13 09:33N 37°54' W 122°24'2 1.7
2014-Dec-13 08:33N 37°54' W 122°22'0 0.0
2014-Dec-13 07:33N 37°54' W 122°22'0 0.0
2014-Dec-13 06:33N 37°54' W 122°22'0 0.0
2014-Dec-13 05:33N 37°54' W 122°22'0 0.0
2014-Dec-13 04:33N 37°54' W 122°22'0 0.0
2014-Dec-13 03:33N 37°54' W 122°22'0 0.0
2014-Dec-13 02:33N 37°54' W 122°22'0 0.0
2014-Dec-13 01:33N 37°54' W 122°22'1 0.9
2014-Dec-13 00:33N 37°54' W 122°23'1 1.0
2014-Dec-12 23:34N 37°54' W 122°22'0 0.0
2014-Dec-12 22:33N 37°54' W 122°22'0 0.0
2014-Dec-12 21:33N 37°54' W 122°22'0 0.0
2014-Dec-12 20:33N 37°54' W 122°22'0 0.0
2014-Dec-12 19:33N 37°54' W 122°22'0 0.0
2014-Dec-12 18:33N 37°54' W 122°22'0 0.0
2014-Dec-12 17:33N 37°54' W 122°22'0 0.0
2014-Dec-12 16:33N 37°54' W 122°22'0 0.0
2014-Dec-12 15:33N 37°54' W 122°22'0 0.0
2014-Dec-12 14:33N 37°54' W 122°22'  
Track history (hours):
 
Tides and Currents Weather Stations Pressure Air Temp Water Temp Dewpoint Dewpoint Depression Visibility Wind Speed Wind Dir Waves Ship Positions

Arthur Brusco

Owner: Brusco Tug & Barge, Inc, Longview, WA. More information available from US FCC via Universal Licensing System and Coast Guard Vessel Documentation Center.

Last reported at 2014-Dec-22 13:33 UTC. Time now 2014-Dec-22 14:14 UTC.
Position N 37°57' W 122°26'.

Length 35 m; draft 4.2 m.

Type: Towing. MMSI: 367008020.

Date/timePositionNaut miles runAvg speedWind from/ knotsBaromVisibWave heightAir tempDewpointWater temp
2014-Dec-22 13:33N 37°57' W 122°26'7 6.9
2014-Dec-22 12:33N 38°02' W 122°21'14 9.6
2014-Dec-22 11:07N 38°04' W 122°03'11 1.7
2014-Dec-22 04:25N 38°03' W 122°18'7 8.0
2014-Dec-22 03:33N 37°59' W 122°25'5 5.4
2014-Dec-22 02:33N 37°54' W 122°23'6 6.0
2014-Dec-22 01:33N 38°00' W 122°24'6 0.8
2014-Dec-21 18:22N 38°03' W 122°18'7 8.8
2014-Dec-21 17:33N 37°59' W 122°25'5 5.1
2014-Dec-21 16:33N 37°54' W 122°23'0 0.0
2014-Dec-21 15:33N 37°54' W 122°23'1 0.8
2014-Dec-21 14:33N 37°54' W 122°22'0 0.0
2014-Dec-21 13:33N 37°54' W 122°22'0 0.0
2014-Dec-21 12:33N 37°54' W 122°22'0 0.0
2014-Dec-21 11:33N 37°54' W 122°22'0 0.0
2014-Dec-21 10:33N 37°54' W 122°22'0 0.0
2014-Dec-21 09:33N 37°54' W 122°22'0 0.0
2014-Dec-21 08:33N 37°54' W 122°22'0 0.0
2014-Dec-21 07:33N 37°54' W 122°22'0 0.0
2014-Dec-21 06:33N 37°54' W 122°22'0 0.0
2014-Dec-21 05:33N 37°54' W 122°22'0 0.0
2014-Dec-21 04:33N 37°54' W 122°22'0 0.0
2014-Dec-21 03:33N 37°54' W 122°22'1 1.4
2014-Dec-21 02:33N 37°54' W 122°24'0 0.5
2014-Dec-21 01:33N 37°54' W 122°24'3 3.3
2014-Dec-21 00:33N 37°57' W 122°26'1211.6
2014-Dec-20 23:33N 38°04' W 122°13'4 0.7
2014-Dec-20 17:28N 38°02' W 122°08'9 9.3
2014-Dec-20 16:33N 38°03' W 122°19'9 8.7
2014-Dec-20 15:33N 37°55' W 122°25'1 0.6
2014-Dec-20 14:33N 37°55' W 122°25'6 6.3
2014-Dec-20 13:33N 38°01' W 122°23'10 9.5
2014-Dec-20 12:30N 38°03' W 122°11'2 0.2
2014-Dec-20 04:03N 38°04' W 122°13'4 6.5
2014-Dec-20 03:22N 38°03' W 122°19'5 6.3
2014-Dec-20 02:33N 38°00' W 122°24'6 5.7
2014-Dec-20 01:33N 37°54' W 122°24'0 0.2
2014-Dec-20 00:33N 37°54' W 122°23'0 0.0
2014-Dec-19 23:33N 37°54' W 122°23'0 0.0
2014-Dec-19 22:33N 37°54' W 122°23'0 0.0
2014-Dec-19 21:33N 37°54' W 122°23'0 0.0
2014-Dec-19 20:33N 37°54' W 122°23'0 0.0
2014-Dec-19 19:33N 37°54' W 122°23'0 0.0
2014-Dec-19 18:33N 37°54' W 122°23'0 0.0
2014-Dec-19 17:33N 37°54' W 122°23'0 0.0
2014-Dec-19 16:33N 37°54' W 122°23'0 0.0
2014-Dec-19 15:33N 37°54' W 122°23'0 0.0
2014-Dec-19 14:33N 37°54' W 122°23'0 0.0
2014-Dec-19 13:33N 37°54' W 122°23'0 0.0
2014-Dec-19 12:33N 37°54' W 122°23'0 0.0
2014-Dec-19 11:33N 37°54' W 122°23'0 0.0
2014-Dec-19 10:33N 37°54' W 122°23'0 0.0
2014-Dec-19 09:33N 37°54' W 122°23'0 0.0
2014-Dec-19 08:33N 37°54' W 122°23'0 0.0
2014-Dec-19 07:33N 37°54' W 122°23'0 0.0
2014-Dec-19 06:33N 37°54' W 122°23'0 0.0
2014-Dec-19 05:33N 37°54' W 122°23'0 0.0
2014-Dec-19 04:33N 37°54' W 122°23'0 0.0
2014-Dec-19 03:33N 37°54' W 122°23'0 0.0
2014-Dec-19 02:33N 37°54' W 122°23'0 0.0
2014-Dec-19 01:33N 37°54' W 122°23'0 0.0
2014-Dec-19 00:33N 37°54' W 122°23'0 0.0
2014-Dec-18 23:33N 37°54' W 122°23'0 0.0
2014-Dec-18 22:33N 37°54' W 122°23'0 0.0
2014-Dec-18 21:33N 37°54' W 122°23'0 0.0
2014-Dec-18 20:33N 37°54' W 122°23'0 0.0
2014-Dec-18 19:33N 37°54' W 122°23'0 0.0
2014-Dec-18 18:33N 37°54' W 122°23'0 0.0
2014-Dec-18 17:33N 37°54' W 122°23'0 0.0
2014-Dec-18 16:33N 37°54' W 122°23'1 1.2
2014-Dec-18 15:33N 37°54' W 122°22'0 0.0
2014-Dec-18 14:33N 37°54' W 122°22'0 0.0
2014-Dec-18 13:33N 37°54' W 122°22'0 0.0
2014-Dec-18 12:33N 37°54' W 122°22'0 0.0
2014-Dec-18 11:33N 37°54' W 122°22'0 0.0
2014-Dec-18 10:33N 37°54' W 122°22'0 0.0
2014-Dec-18 09:33N 37°54' W 122°22'0 0.0
2014-Dec-18 08:33N 37°54' W 122°22'0 0.0
2014-Dec-18 07:33N 37°54' W 122°22'0 0.0
2014-Dec-18 06:33N 37°54' W 122°22'0 0.0
2014-Dec-18 05:33N 37°54' W 122°22'0 0.0
2014-Dec-18 04:33N 37°54' W 122°22'0 0.0
2014-Dec-18 03:33N 37°54' W 122°22'0 0.0
2014-Dec-18 02:33N 37°54' W 122°22'0 0.0
2014-Dec-18 01:33N 37°54' W 122°22'0 0.0
2014-Dec-18 00:34N 37°54' W 122°22'1 1.2
2014-Dec-17 23:33N 37°54' W 122°23'0 0.0
2014-Dec-17 22:33N 37°54' W 122°23'0 0.0
2014-Dec-17 21:33N 37°54' W 122°23'0 0.0
2014-Dec-17 20:33N 37°54' W 122°23'0 0.0
2014-Dec-17 19:33N 37°54' W 122°23'0 0.0
2014-Dec-17 18:33N 37°54' W 122°23'0 0.0
2014-Dec-17 17:33N 37°54' W 122°23'0 0.0
2014-Dec-17 16:33N 37°54' W 122°23'0 0.0
2014-Dec-17 15:33N 37°54' W 122°23'0 0.0
2014-Dec-17 14:33N 37°54' W 122°23'0 0.0
2014-Dec-17 13:33N 37°54' W 122°23'0 0.0
2014-Dec-17 12:33N 37°54' W 122°23'0 0.0
2014-Dec-17 11:33N 37°54' W 122°23'0 0.0
2014-Dec-17 10:33N 37°54' W 122°23'0 0.0
2014-Dec-17 09:33N 37°54' W 122°23'0 0.0
2014-Dec-17 08:33N 37°54' W 122°23'0 0.0
2014-Dec-17 07:33N 37°54' W 122°23'0 0.0
2014-Dec-17 06:33N 37°54' W 122°23'0 0.0
2014-Dec-17 05:33N 37°54' W 122°23'0 0.0
2014-Dec-17 04:33N 37°54' W 122°23'0 0.0
2014-Dec-17 03:33N 37°54' W 122°23'0 0.0
2014-Dec-17 02:33N 37°54' W 122°23'0 0.0
2014-Dec-17 01:33N 37°54' W 122°23'1 1.1
2014-Dec-17 00:33N 37°54' W 122°22'0 0.1
2014-Dec-16 23:33N 37°54' W 122°22'0 0.0
2014-Dec-16 22:33N 37°54' W 122°22'0 0.0
2014-Dec-16 21:33N 37°54' W 122°22'1 1.2
2014-Dec-16 20:33N 37°54' W 122°23'0 0.0
2014-Dec-16 19:33N 37°54' W 122°23'0 0.0
2014-Dec-16 18:33N 37°54' W 122°23'1 1.2
2014-Dec-16 17:33N 37°54' W 122°22'0 0.0
2014-Dec-16 16:33N 37°54' W 122°22'0 0.0
2014-Dec-16 15:33N 37°54' W 122°22'0 0.0
2014-Dec-16 14:33N 37°54' W 122°22'0 0.0
2014-Dec-16 13:33N 37°54' W 122°22'0 0.0
2014-Dec-16 12:33N 37°54' W 122°22'0 0.0
2014-Dec-16 11:33N 37°54' W 122°22'0 0.0
2014-Dec-16 10:33N 37°54' W 122°22'0 0.0
2014-Dec-16 09:33N 37°54' W 122°22'0 0.0
2014-Dec-16 08:33N 37°54' W 122°22'0 0.0
2014-Dec-16 07:33N 37°54' W 122°22'0 0.0
2014-Dec-16 06:33N 37°54' W 122°22'0 0.0
2014-Dec-16 05:33N 37°54' W 122°22'0 0.0
2014-Dec-16 04:33N 37°54' W 122°22'0 0.0
2014-Dec-16 03:32N 37°54' W 122°22'0 0.0
2014-Dec-16 02:33N 37°54' W 122°22'0 0.0
2014-Dec-16 01:33N 37°54' W 122°22'0 0.0
2014-Dec-16 00:33N 37°54' W 122°22'0 0.0
2014-Dec-15 23:33N 37°54' W 122°22'1 0.6
2014-Dec-15 22:34N 37°54' W 122°23'0 0.0
2014-Dec-15 21:33N 37°54' W 122°23'0 0.0
2014-Dec-15 20:33N 37°54' W 122°23'0 0.1
2014-Dec-15 19:33N 37°54' W 122°23'0 0.1
2014-Dec-15 18:33N 37°54' W 122°23'1 0.6
2014-Dec-15 17:33N 37°54' W 122°22'0 0.0
2014-Dec-15 16:33N 37°54' W 122°22'0 0.0
2014-Dec-15 15:33N 37°54' W 122°22'0 0.0
2014-Dec-15 14:33N 37°54' W 122°22'0 0.0
2014-Dec-15 13:33N 37°54' W 122°22'0 0.0
2014-Dec-15 12:33N 37°54' W 122°22'0 0.0
2014-Dec-15 11:33N 37°54' W 122°22'0 0.0
2014-Dec-15 10:33N 37°54' W 122°22'0 0.0
2014-Dec-15 09:33N 37°54' W 122°22'0 0.0
2014-Dec-15 08:33N 37°54' W 122°22'0 0.0
2014-Dec-15 07:33N 37°54' W 122°22'0 0.0
2014-Dec-15 06:33N 37°54' W 122°22'0 0.0
2014-Dec-15 05:33N 37°54' W 122°22'0 0.0
2014-Dec-15 04:33N 37°54' W 122°22'0 0.0
2014-Dec-15 03:33N 37°54' W 122°22'0 0.0
2014-Dec-15 02:33N 37°54' W 122°22'2 1.6
2014-Dec-15 01:33N 37°54' W 122°24'5 5.5
2014-Dec-15 00:33N 37°49' W 122°26'8 7.7
2014-Dec-14 23:33N 37°47' W 122°35'7 7.0
2014-Dec-14 22:32N 37°43' W 122°43'11 8.8
2014-Dec-14 21:14N 37°37' W 122°55'8 9.7
2014-Dec-14 20:25N 37°33' W 123°03'9 2.3
2014-Dec-14 16:24N 37°38' W 123°12'8 9.1
2014-Dec-14 15:33N 37°38' W 123°03'9 8.7
2014-Dec-14 14:31N 37°41' W 122°52'9 9.0
2014-Dec-14 13:33N 37°45' W 122°43'8 7.7
2014-Dec-14 12:33N 37°48' W 122°33'7 6.8
2014-Dec-14 11:33N 37°50' W 122°25'4 4.5
2014-Dec-14 10:33N 37°54' W 122°23'0 0.1
2014-Dec-14 09:33N 37°54' W 122°23'1 0.7
2014-Dec-14 08:33N 37°54' W 122°22'0 0.0
2014-Dec-14 07:33N 37°54' W 122°22'0 0.0
2014-Dec-14 06:33N 37°54' W 122°22'0 0.0
2014-Dec-14 05:33N 37°54' W 122°22'0 0.0
2014-Dec-14 04:33N 37°54' W 122°22'0 0.0
2014-Dec-14 03:33N 37°54' W 122°22'2 2.3
2014-Dec-14 02:33N 37°54' W 122°25'5 4.7
2014-Dec-14 01:33N 37°49' W 122°25'6 6.4
2014-Dec-14 00:33N 37°47' W 122°32'7 7.5
2014-Dec-13 23:33N 37°46' W 122°42'7 7.1
2014-Dec-13 22:31N 37°40' W 122°48'8 8.7
2014-Dec-13 21:33N 37°36' W 122°57'8 8.2
2014-Dec-13 20:33N 37°33' W 123°07'19 7.9
2014-Dec-13 18:13N 37°39' W 123°29'13 7.5
2014-Dec-13 16:27N 37°38' W 123°12'7 7.4
2014-Dec-13 15:33N 37°38' W 123°04'7 7.2
2014-Dec-13 14:33N 37°39' W 122°55'8 7.0
2014-Dec-13 13:24N 37°43' W 122°47'6 6.5
2014-Dec-13 12:33N 37°46' W 122°40'6 6.2
2014-Dec-13 11:33N 37°48' W 122°33'5 5.2
2014-Dec-13 10:33N 37°50' W 122°27'5 5.2
2014-Dec-13 09:33N 37°54' W 122°24'2 1.7
2014-Dec-13 08:33N 37°54' W 122°22'0 0.0
2014-Dec-13 07:33N 37°54' W 122°22'0 0.0
2014-Dec-13 06:33N 37°54' W 122°22'0 0.0
2014-Dec-13 05:33N 37°54' W 122°22'0 0.0
2014-Dec-13 04:33N 37°54' W 122°22'0 0.0
2014-Dec-13 03:33N 37°54' W 122°22'0 0.0
2014-Dec-13 02:33N 37°54' W 122°22'0 0.0
2014-Dec-13 01:33N 37°54' W 122°22'1 0.9
2014-Dec-13 00:33N 37°54' W 122°23'1 1.0
2014-Dec-12 23:34N 37°54' W 122°22'0 0.0
2014-Dec-12 22:33N 37°54' W 122°22'0 0.0
2014-Dec-12 21:33N 37°54' W 122°22'0 0.0
2014-Dec-12 20:33N 37°54' W 122°22'0 0.0
2014-Dec-12 19:33N 37°54' W 122°22'0 0.0
2014-Dec-12 18:33N 37°54' W 122°22'0 0.0
2014-Dec-12 17:33N 37°54' W 122°22'0 0.0
2014-Dec-12 16:33N 37°54' W 122°22'0 0.0
2014-Dec-12 15:33N 37°54' W 122°22'0 0.0
2014-Dec-12 14:33N 37°54' W 122°22'  

Dump ship's entire track history